sensor_id;sensor_type;location;lat;lon;timestamp;temperature;humidity
14411;DHT22;7290;50.854;4.354;2022-08-03T00:01:16;24.60;99.90
14411;DHT22;7290;50.854;4.354;2022-08-03T00:03:42;24.50;99.90
14411;DHT22;7290;50.854;4.354;2022-08-03T00:06:08;24.40;99.90
14411;DHT22;7290;50.854;4.354;2022-08-03T00:08:34;24.40;99.90
14411;DHT22;7290;50.854;4.354;2022-08-03T00:11:00;24.30;99.90
14411;DHT22;7290;50.854;4.354;2022-08-03T00:13:27;24.30;99.90
14411;DHT22;7290;50.854;4.354;2022-08-03T00:15:53;24.30;99.90
14411;DHT22;7290;50.854;4.354;2022-08-03T00:18:18;24.30;99.90
14411;DHT22;7290;50.854;4.354;2022-08-03T00:20:44;24.40;99.90
14411;DHT22;7290;50.854;4.354;2022-08-03T00:23:10;24.50;99.90
14411;DHT22;7290;50.854;4.354;2022-08-03T00:25:37;24.50;99.90
14411;DHT22;7290;50.854;4.354;2022-08-03T00:28:03;24.50;99.90
14411;DHT22;7290;50.854;4.354;2022-08-03T00:30:30;24.40;99.90
14411;DHT22;7290;50.854;4.354;2022-08-03T00:32:56;24.40;99.90
14411;DHT22;7290;50.854;4.354;2022-08-03T00:35:23;24.30;99.90
14411;DHT22;7290;50.854;4.354;2022-08-03T00:37:49;24.20;99.90
14411;DHT22;7290;50.854;4.354;2022-08-03T00:40:15;24.20;99.90
14411;DHT22;7290;50.854;4.354;2022-08-03T00:42:48;24.30;99.90
14411;DHT22;7290;50.854;4.354;2022-08-03T00:45:16;24.30;99.90
14411;DHT22;7290;50.854;4.354;2022-08-03T00:47:43;24.20;99.90
14411;DHT22;7290;50.854;4.354;2022-08-03T00:50:09;24.10;99.90
14411;DHT22;7290;50.854;4.354;2022-08-03T00:52:35;24.00;99.90
14411;DHT22;7290;50.854;4.354;2022-08-03T00:55:01;23.90;99.90
14411;DHT22;7290;50.854;4.354;2022-08-03T00:57:27;23.80;99.90
14411;DHT22;7290;50.854;4.354;2022-08-03T00:59:54;23.70;99.90
14411;DHT22;7290;50.854;4.354;2022-08-03T01:02:20;23.70;99.90
14411;DHT22;7290;50.854;4.354;2022-08-03T01:04:47;23.70;99.90
14411;DHT22;7290;50.854;4.354;2022-08-03T01:07:15;23.70;99.90
14411;DHT22;7290;50.854;4.354;2022-08-03T01:09:43;23.80;99.90
14411;DHT22;7290;50.854;4.354;2022-08-03T01:12:12;23.90;99.90
14411;DHT22;7290;50.854;4.354;2022-08-03T01:14:41;23.80;99.90
14411;DHT22;7290;50.854;4.354;2022-08-03T01:17:09;23.70;99.90
14411;DHT22;7290;50.854;4.354;2022-08-03T01:19:44;23.60;99.90
14411;DHT22;7290;50.854;4.354;2022-08-03T01:22:17;23.50;99.90
14411;DHT22;7290;50.854;4.354;2022-08-03T01:24:49;23.40;99.90
14411;DHT22;7290;50.854;4.354;2022-08-03T01:27:19;23.40;99.90
14411;DHT22;7290;50.854;4.354;2022-08-03T01:29:51;23.50;99.90
14411;DHT22;7290;50.854;4.354;2022-08-03T01:32:24;23.40;99.90
14411;DHT22;7290;50.854;4.354;2022-08-03T01:34:51;23.50;99.90
14411;DHT22;7290;50.854;4.354;2022-08-03T01:37:20;23.40;99.90
14411;DHT22;7290;50.854;4.354;2022-08-03T01:39:47;23.40;99.90
14411;DHT22;7290;50.854;4.354;2022-08-03T01:42:13;23.40;99.90
14411;DHT22;7290;50.854;4.354;2022-08-03T01:44:41;23.50;99.90
14411;DHT22;7290;50.854;4.354;2022-08-03T01:47:09;23.60;99.90
14411;DHT22;7290;50.854;4.354;2022-08-03T01:49:37;23.60;99.90
14411;DHT22;7290;50.854;4.354;2022-08-03T01:52:03;23.60;99.90
14411;DHT22;7290;50.854;4.354;2022-08-03T01:54:29;23.50;99.90
14411;DHT22;7290;50.854;4.354;2022-08-03T01:56:56;23.60;99.90
14411;DHT22;7290;50.854;4.354;2022-08-03T01:59:23;23.60;99.90
14411;DHT22;7290;50.854;4.354;2022-08-03T02:01:50;23.40;99.90
14411;DHT22;7290;50.854;4.354;2022-08-03T02:04:17;23.30;99.90
14411;DHT22;7290;50.854;4.354;2022-08-03T02:06:44;23.30;99.90
14411;DHT22;7290;50.854;4.354;2022-08-03T02:09:11;23.40;99.90
14411;DHT22;7290;50.854;4.354;2022-08-03T02:11:37;23.40;99.90
14411;DHT22;7290;50.854;4.354;2022-08-03T02:14:04;23.50;99.90
14411;DHT22;7290;50.854;4.354;2022-08-03T02:19:34;23.60;99.90
14411;DHT22;7290;50.854;4.354;2022-08-03T02:22:00;23.60;99.90
14411;DHT22;7290;50.854;4.354;2022-08-03T02:24:27;23.70;99.90
14411;DHT22;7290;50.854;4.354;2022-08-03T02:26:54;23.70;99.90
14411;DHT22;7290;50.854;4.354;2022-08-03T02:29:20;23.70;99.90
14411;DHT22;7290;50.854;4.354;2022-08-03T02:31:48;23.70;99.90
14411;DHT22;7290;50.854;4.354;2022-08-03T02:34:14;23.60;99.90
14411;DHT22;7290;50.854;4.354;2022-08-03T02:36:43;23.60;99.90
14411;DHT22;7290;50.854;4.354;2022-08-03T02:39:10;23.60;99.90
14411;DHT22;7290;50.854;4.354;2022-08-03T02:41:37;23.50;99.90
14411;DHT22;7290;50.854;4.354;2022-08-03T02:44:06;23.40;99.90
14411;DHT22;7290;50.854;4.354;2022-08-03T02:46:33;23.40;99.90
14411;DHT22;7290;50.854;4.354;2022-08-03T02:49:00;23.30;99.90
14411;DHT22;7290;50.854;4.354;2022-08-03T02:51:27;23.30;99.90
14411;DHT22;7290;50.854;4.354;2022-08-03T02:53:55;23.30;99.90
14411;DHT22;7290;50.854;4.354;2022-08-03T02:56:22;23.20;99.90
14411;DHT22;7290;50.854;4.354;2022-08-03T02:58:49;23.10;99.90
14411;DHT22;7290;50.854;4.354;2022-08-03T03:01:16;23.10;99.90
14411;DHT22;7290;50.854;4.354;2022-08-03T03:03:43;23.10;99.90
14411;DHT22;7290;50.854;4.354;2022-08-03T03:06:09;23.10;99.90
14411;DHT22;7290;50.854;4.354;2022-08-03T03:08:37;23.00;99.90
14411;DHT22;7290;50.854;4.354;2022-08-03T03:11:04;23.10;99.90
14411;DHT22;7290;50.854;4.354;2022-08-03T03:13:32;23.10;99.90
14411;DHT22;7290;50.854;4.354;2022-08-03T03:15:59;23.00;99.90
14411;DHT22;7290;50.854;4.354;2022-08-03T03:18:26;23.10;99.90
14411;DHT22;7290;50.854;4.354;2022-08-03T03:20:52;23.00;99.90
14411;DHT22;7290;50.854;4.354;2022-08-03T03:23:19;23.00;99.90
14411;DHT22;7290;50.854;4.354;2022-08-03T03:25:46;23.00;99.90
14411;DHT22;7290;50.854;4.354;2022-08-03T03:28:12;23.00;99.90
14411;DHT22;7290;50.854;4.354;2022-08-03T03:30:39;23.00;99.90
14411;DHT22;7290;50.854;4.354;2022-08-03T03:33:05;23.00;99.90
14411;DHT22;7290;50.854;4.354;2022-08-03T03:35:32;22.90;99.90
14411;DHT22;7290;50.854;4.354;2022-08-03T03:37:59;22.80;99.90
14411;DHT22;7290;50.854;4.354;2022-08-03T03:40:25;22.80;99.90
14411;DHT22;7290;50.854;4.354;2022-08-03T03:42:51;22.90;99.90
14411;DHT22;7290;50.854;4.354;2022-08-03T03:45:18;23.00;99.90
14411;DHT22;7290;50.854;4.354;2022-08-03T03:47:46;23.00;99.90
14411;DHT22;7290;50.854;4.354;2022-08-03T03:50:12;22.90;99.90
14411;DHT22;7290;50.854;4.354;2022-08-03T03:52:39;22.90;99.90
14411;DHT22;7290;50.854;4.354;2022-08-03T03:55:06;22.80;99.90
14411;DHT22;7290;50.854;4.354;2022-08-03T03:57:33;22.80;99.90
14411;DHT22;7290;50.854;4.354;2022-08-03T03:59:59;22.80;99.90
14411;DHT22;7290;50.854;4.354;2022-08-03T04:02:25;22.80;99.90
14411;DHT22;7290;50.854;4.354;2022-08-03T04:04:52;22.70;99.90
14411;DHT22;7290;50.854;4.354;2022-08-03T04:07:37;22.80;99.90
14411;DHT22;7290;50.854;4.354;2022-08-03T04:10:25;22.80;99.90
14411;DHT22;7290;50.854;4.354;2022-08-03T04:13:11;22.80;99.90
14411;DHT22;7290;50.854;4.354;2022-08-03T04:15:38;22.80;99.90
14411;DHT22;7290;50.854;4.354;2022-08-03T04:18:05;22.80;99.90
14411;DHT22;7290;50.854;4.354;2022-08-03T04:20:31;22.60;99.90
14411;DHT22;7290;50.854;4.354;2022-08-03T04:23:00;22.60;99.90
14411;DHT22;7290;50.854;4.354;2022-08-03T04:25:27;22.70;99.90
14411;DHT22;7290;50.854;4.354;2022-08-03T04:27:54;22.70;99.90
14411;DHT22;7290;50.854;4.354;2022-08-03T04:30:23;22.80;99.90
14411;DHT22;7290;50.854;4.354;2022-08-03T04:32:51;22.70;99.90
14411;DHT22;7290;50.854;4.354;2022-08-03T04:35:18;22.70;99.90
14411;DHT22;7290;50.854;4.354;2022-08-03T04:37:44;22.80;99.90
14411;DHT22;7290;50.854;4.354;2022-08-03T04:40:13;22.80;99.90
14411;DHT22;7290;50.854;4.354;2022-08-03T04:42:39;22.70;99.90
14411;DHT22;7290;50.854;4.354;2022-08-03T04:45:06;22.70;99.90
14411;DHT22;7290;50.854;4.354;2022-08-03T04:47:32;22.70;99.90
14411;DHT22;7290;50.854;4.354;2022-08-03T04:49:59;22.80;99.90
14411;DHT22;7290;50.854;4.354;2022-08-03T04:52:26;22.90;99.90
14411;DHT22;7290;50.854;4.354;2022-08-03T04:54:52;22.90;99.90
14411;DHT22;7290;50.854;4.354;2022-08-03T04:57:18;22.80;99.90
14411;DHT22;7290;50.854;4.354;2022-08-03T04:59:44;22.70;99.90
14411;DHT22;7290;50.854;4.354;2022-08-03T05:02:10;22.60;99.90
14411;DHT22;7290;50.854;4.354;2022-08-03T05:04:35;22.70;99.90
14411;DHT22;7290;50.854;4.354;2022-08-03T05:07:05;22.60;99.90
14411;DHT22;7290;50.854;4.354;2022-08-03T05:09:31;22.70;99.90
14411;DHT22;7290;50.854;4.354;2022-08-03T05:11:57;22.70;99.90
14411;DHT22;7290;50.854;4.354;2022-08-03T05:14:23;22.70;99.90
14411;DHT22;7290;50.854;4.354;2022-08-03T05:16:49;22.70;99.90
14411;DHT22;7290;50.854;4.354;2022-08-03T05:19:15;22.70;99.90
14411;DHT22;7290;50.854;4.354;2022-08-03T05:21:41;22.70;99.90
14411;DHT22;7290;50.854;4.354;2022-08-03T05:24:07;22.80;99.90
14411;DHT22;7290;50.854;4.354;2022-08-03T05:26:33;22.80;99.90
14411;DHT22;7290;50.854;4.354;2022-08-03T05:28:59;22.70;99.90
14411;DHT22;7290;50.854;4.354;2022-08-03T05:31:25;22.70;99.90
14411;DHT22;7290;50.854;4.354;2022-08-03T05:33:51;22.70;99.90
14411;DHT22;7290;50.854;4.354;2022-08-03T05:36:17;22.70;99.90
14411;DHT22;7290;50.854;4.354;2022-08-03T05:38:43;22.80;99.90
14411;DHT22;7290;50.854;4.354;2022-08-03T05:41:09;22.80;99.90
14411;DHT22;7290;50.854;4.354;2022-08-03T05:43:35;22.70;99.90
14411;DHT22;7290;50.854;4.354;2022-08-03T05:46:01;22.70;99.90
14411;DHT22;7290;50.854;4.354;2022-08-03T05:48:27;22.70;99.90
14411;DHT22;7290;50.854;4.354;2022-08-03T05:50:53;22.90;99.90
14411;DHT22;7290;50.854;4.354;2022-08-03T05:53:19;23.10;99.90
14411;DHT22;7290;50.854;4.354;2022-08-03T05:55:45;25.10;99.90
14411;DHT22;7290;50.854;4.354;2022-08-03T05:58:11;27.40;99.90
14411;DHT22;7290;50.854;4.354;2022-08-03T06:00:38;28.60;99.90
14411;DHT22;7290;50.854;4.354;2022-08-03T06:03:04;30.10;99.90
14411;DHT22;7290;50.854;4.354;2022-08-03T06:05:30;30.70;98.70
14411;DHT22;7290;50.854;4.354;2022-08-03T06:07:56;30.70;98.10
14411;DHT22;7290;50.854;4.354;2022-08-03T06:10:22;31.40;97.50
14411;DHT22;7290;50.854;4.354;2022-08-03T06:12:48;32.40;95.70
14411;DHT22;7290;50.854;4.354;2022-08-03T06:15:15;32.80;94.60
14411;DHT22;7290;50.854;4.354;2022-08-03T06:17:44;32.60;94.70
14411;DHT22;7290;50.854;4.354;2022-08-03T06:20:10;32.50;94.30
14411;DHT22;7290;50.854;4.354;2022-08-03T06:22:36;32.60;94.20
14411;DHT22;7290;50.854;4.354;2022-08-03T06:25:02;32.60;94.00
14411;DHT22;7290;50.854;4.354;2022-08-03T06:27:28;31.70;94.60
14411;DHT22;7290;50.854;4.354;2022-08-03T06:29:54;31.00;95.40
14411;DHT22;7290;50.854;4.354;2022-08-03T06:32:20;31.20;95.40
14411;DHT22;7290;50.854;4.354;2022-08-03T06:34:47;31.80;94.60
14411;DHT22;7290;50.854;4.354;2022-08-03T06:37:13;32.30;93.90
14411;DHT22;7290;50.854;4.354;2022-08-03T06:39:39;32.40;93.60
14411;DHT22;7290;50.854;4.354;2022-08-03T06:42:05;32.40;93.40
14411;DHT22;7290;50.854;4.354;2022-08-03T06:44:31;32.60;93.20
14411;DHT22;7290;50.854;4.354;2022-08-03T06:46:57;32.80;93.00
14411;DHT22;7290;50.854;4.354;2022-08-03T06:49:23;32.90;92.70
14411;DHT22;7290;50.854;4.354;2022-08-03T06:51:50;33.80;91.70
14411;DHT22;7290;50.854;4.354;2022-08-03T06:54:18;33.90;91.40
14411;DHT22;7290;50.854;4.354;2022-08-03T06:56:44;33.20;91.90
14411;DHT22;7290;50.854;4.354;2022-08-03T06:59:10;33.00;91.90
14411;DHT22;7290;50.854;4.354;2022-08-03T07:01:36;33.00;92.00
14411;DHT22;7290;50.854;4.354;2022-08-03T07:04:01;33.90;91.20
14411;DHT22;7290;50.854;4.354;2022-08-03T07:06:27;35.10;90.00
14411;DHT22;7290;50.854;4.354;2022-08-03T07:08:54;35.30;89.00
14411;DHT22;7290;50.854;4.354;2022-08-03T07:11:20;35.20;89.10
14411;DHT22;7290;50.854;4.354;2022-08-03T07:13:46;35.90;87.60
14411;DHT22;7290;50.854;4.354;2022-08-03T07:16:12;36.90;85.50
14411;DHT22;7290;50.854;4.354;2022-08-03T07:18:38;37.60;83.30
14411;DHT22;7290;50.854;4.354;2022-08-03T07:21:04;36.20;85.00
14411;DHT22;7290;50.854;4.354;2022-08-03T07:23:32;36.50;84.70
14411;DHT22;7290;50.854;4.354;2022-08-03T07:25:59;36.90;84.50
14411;DHT22;7290;50.854;4.354;2022-08-03T07:28:25;37.50;82.40
14411;DHT22;7290;50.854;4.354;2022-08-03T07:30:51;38.30;80.90
14411;DHT22;7290;50.854;4.354;2022-08-03T07:33:17;39.40;79.00
14411;DHT22;7290;50.854;4.354;2022-08-03T07:35:43;38.70;79.00
14411;DHT22;7290;50.854;4.354;2022-08-03T07:38:08;38.00;79.90
14411;DHT22;7290;50.854;4.354;2022-08-03T07:40:34;38.20;79.60
14411;DHT22;7290;50.854;4.354;2022-08-03T07:43:01;38.00;79.80
14411;DHT22;7290;50.854;4.354;2022-08-03T07:45:28;37.00;81.30
14411;DHT22;7290;50.854;4.354;2022-08-03T07:47:54;37.10;81.40
14411;DHT22;7290;50.854;4.354;2022-08-03T07:50:20;35.90;82.90
14411;DHT22;7290;50.854;4.354;2022-08-03T07:52:46;36.00;83.00
14411;DHT22;7290;50.854;4.354;2022-08-03T07:55:12;36.90;81.30
14411;DHT22;7290;50.854;4.354;2022-08-03T07:57:38;37.50;80.30
14411;DHT22;7290;50.854;4.354;2022-08-03T08:00:05;38.70;78.70
14411;DHT22;7290;50.854;4.354;2022-08-03T08:02:33;39.30;77.30
14411;DHT22;7290;50.854;4.354;2022-08-03T08:04:59;39.40;76.70
14411;DHT22;7290;50.854;4.354;2022-08-03T08:07:25;39.50;76.00
14411;DHT22;7290;50.854;4.354;2022-08-03T08:09:51;38.70;77.20
14411;DHT22;7290;50.854;4.354;2022-08-03T08:12:17;38.20;78.50
14411;DHT22;7290;50.854;4.354;2022-08-03T08:14:42;37.70;78.60
14411;DHT22;7290;50.854;4.354;2022-08-03T08:17:11;38.90;76.70
14411;DHT22;7290;50.854;4.354;2022-08-03T08:19:37;40.20;74.70
14411;DHT22;7290;50.854;4.354;2022-08-03T08:22:03;40.60;73.60
14411;DHT22;7290;50.854;4.354;2022-08-03T08:24:30;39.90;74.30
14411;DHT22;7290;50.854;4.354;2022-08-03T08:26:55;38.60;76.20
14411;DHT22;7290;50.854;4.354;2022-08-03T08:29:22;39.30;75.30
14411;DHT22;7290;50.854;4.354;2022-08-03T08:31:48;39.10;74.90
14411;DHT22;7290;50.854;4.354;2022-08-03T08:34:15;39.00;74.50
14411;DHT22;7290;50.854;4.354;2022-08-03T08:36:41;38.80;75.00
14411;DHT22;7290;50.854;4.354;2022-08-03T08:39:07;38.90;74.50
14411;DHT22;7290;50.854;4.354;2022-08-03T08:41:33;38.50;75.10
14411;DHT22;7290;50.854;4.354;2022-08-03T08:43:59;38.50;75.90
14411;DHT22;7290;50.854;4.354;2022-08-03T08:46:25;39.70;73.20
14411;DHT22;7290;50.854;4.354;2022-08-03T08:48:51;40.60;71.40
14411;DHT22;7290;50.854;4.354;2022-08-03T08:51:18;40.70;70.70
14411;DHT22;7290;50.854;4.354;2022-08-03T08:53:47;39.20;72.20
14411;DHT22;7290;50.854;4.354;2022-08-03T08:56:14;39.10;72.80
14411;DHT22;7290;50.854;4.354;2022-08-03T08:58:41;39.90;71.60
14411;DHT22;7290;50.854;4.354;2022-08-03T09:01:08;40.60;70.70
14411;DHT22;7290;50.854;4.354;2022-08-03T09:03:35;40.70;70.20
14411;DHT22;7290;50.854;4.354;2022-08-03T09:06:01;41.30;69.40
14411;DHT22;7290;50.854;4.354;2022-08-03T09:08:28;40.90;69.40
14411;DHT22;7290;50.854;4.354;2022-08-03T09:10:54;40.90;69.60
14411;DHT22;7290;50.854;4.354;2022-08-03T09:13:20;40.80;69.80
14411;DHT22;7290;50.854;4.354;2022-08-03T09:15:46;40.90;69.20
14411;DHT22;7290;50.854;4.354;2022-08-03T09:18:12;41.20;68.10
14411;DHT22;7290;50.854;4.354;2022-08-03T09:20:39;41.30;67.40
14411;DHT22;7290;50.854;4.354;2022-08-03T09:23:06;41.10;67.20
14411;DHT22;7290;50.854;4.354;2022-08-03T09:25:34;41.10;67.40
14411;DHT22;7290;50.854;4.354;2022-08-03T09:28:03;41.70;66.90
14411;DHT22;7290;50.854;4.354;2022-08-03T09:30:30;42.30;66.20
14411;DHT22;7290;50.854;4.354;2022-08-03T09:32:58;41.70;65.80
14411;DHT22;7290;50.854;4.354;2022-08-03T09:35:25;42.30;65.10
14411;DHT22;7290;50.854;4.354;2022-08-03T09:37:55;42.20;65.20
14411;DHT22;7290;50.854;4.354;2022-08-03T09:40:33;41.60;65.10
14411;DHT22;7290;50.854;4.354;2022-08-03T09:43:00;41.30;65.60
14411;DHT22;7290;50.854;4.354;2022-08-03T09:45:26;41.00;66.00
14411;DHT22;7290;50.854;4.354;2022-08-03T09:47:52;40.50;67.70
14411;DHT22;7290;50.854;4.354;2022-08-03T09:50:18;40.50;67.00
14411;DHT22;7290;50.854;4.354;2022-08-03T09:52:44;41.20;66.80
14411;DHT22;7290;50.854;4.354;2022-08-03T09:55:13;41.90;66.10
14411;DHT22;7290;50.854;4.354;2022-08-03T09:57:40;41.40;67.00
14411;DHT22;7290;50.854;4.354;2022-08-03T10:00:10;42.40;65.40
14411;DHT22;7290;50.854;4.354;2022-08-03T10:02:37;43.30;64.10
14411;DHT22;7290;50.854;4.354;2022-08-03T10:05:04;42.30;64.90
14411;DHT22;7290;50.854;4.354;2022-08-03T10:07:40;41.20;66.50
14411;DHT22;7290;50.854;4.354;2022-08-03T10:10:06;41.60;66.10
14411;DHT22;7290;50.854;4.354;2022-08-03T10:12:32;41.60;66.10
14411;DHT22;7290;50.854;4.354;2022-08-03T10:14:59;41.20;66.10
14411;DHT22;7290;50.854;4.354;2022-08-03T10:17:25;40.70;67.30
14411;DHT22;7290;50.854;4.354;2022-08-03T10:19:51;41.10;66.60
14411;DHT22;7290;50.854;4.354;2022-08-03T10:22:18;40.80;67.10
14411;DHT22;7290;50.854;4.354;2022-08-03T10:24:46;40.50;67.70
14411;DHT22;7290;50.854;4.354;2022-08-03T10:27:13;40.70;67.40
14411;DHT22;7290;50.854;4.354;2022-08-03T10:29:41;40.80;67.10
14411;DHT22;7290;50.854;4.354;2022-08-03T10:34:52;42.00;64.90
14411;DHT22;7290;50.854;4.354;2022-08-03T10:37:19;41.40;65.90
14411;DHT22;7290;50.854;4.354;2022-08-03T10:39:45;41.50;65.70
14411;DHT22;7290;50.854;4.354;2022-08-03T10:42:19;42.60;64.50
14411;DHT22;7290;50.854;4.354;2022-08-03T10:44:45;42.40;64.10
14411;DHT22;7290;50.854;4.354;2022-08-03T10:47:13;42.70;63.80
14411;DHT22;7290;50.854;4.354;2022-08-03T10:49:39;43.00;63.60
14411;DHT22;7290;50.854;4.354;2022-08-03T10:52:06;42.80;63.60
14411;DHT22;7290;50.854;4.354;2022-08-03T10:54:39;43.30;63.10
14411;DHT22;7290;50.854;4.354;2022-08-03T10:57:42;43.00;63.20
14411;DHT22;7290;50.854;4.354;2022-08-03T11:00:08;41.70;64.80
14411;DHT22;7290;50.854;4.354;2022-08-03T11:05:25;41.10;65.50
14411;DHT22;7290;50.854;4.354;2022-08-03T11:10:33;40.80;66.10
14411;DHT22;7290;50.854;4.354;2022-08-03T11:13:04;41.40;65.10
14411;DHT22;7290;50.854;4.354;2022-08-03T11:15:32;41.60;64.70
14411;DHT22;7290;50.854;4.354;2022-08-03T11:18:06;41.80;64.00
14411;DHT22;7290;50.854;4.354;2022-08-03T11:20:48;40.60;65.70
14411;DHT22;7290;50.854;4.354;2022-08-03T11:23:15;41.70;64.80
14411;DHT22;7290;50.854;4.354;2022-08-03T11:28:27;40.80;65.60
14411;DHT22;7290;50.854;4.354;2022-08-03T11:30:53;40.40;66.40
14411;DHT22;7290;50.854;4.354;2022-08-03T11:33:27;40.10;66.50
14411;DHT22;7290;50.854;4.354;2022-08-03T11:35:57;39.90;65.90
14411;DHT22;7290;50.854;4.354;2022-08-03T11:38:23;40.30;66.10
14411;DHT22;7290;50.854;4.354;2022-08-03T11:40:49;40.40;65.90
14411;DHT22;7290;50.854;4.354;2022-08-03T11:46:03;39.40;67.10
14411;DHT22;7290;50.854;4.354;2022-08-03T11:48:32;38.80;68.00
14411;DHT22;7290;50.854;4.354;2022-08-03T11:50:58;39.10;67.60
14411;DHT22;7290;50.854;4.354;2022-08-03T11:53:24;38.70;68.30
14411;DHT22;7290;50.854;4.354;2022-08-03T11:55:50;38.70;68.40
14411;DHT22;7290;50.854;4.354;2022-08-03T11:58:18;39.30;67.50
14411;DHT22;7290;50.854;4.354;2022-08-03T12:00:44;38.60;67.60
14411;DHT22;7290;50.854;4.354;2022-08-03T12:03:12;37.20;68.90
14411;DHT22;7290;50.854;4.354;2022-08-03T12:05:39;36.90;70.00
14411;DHT22;7290;50.854;4.354;2022-08-03T12:08:06;37.00;70.50
14411;DHT22;7290;50.854;4.354;2022-08-03T12:10:32;36.70;70.50
14411;DHT22;7290;50.854;4.354;2022-08-03T12:12:59;36.90;70.60
14411;DHT22;7290;50.854;4.354;2022-08-03T12:15:25;36.90;70.70
14411;DHT22;7290;50.854;4.354;2022-08-03T12:17:51;37.30;70.60
14411;DHT22;7290;50.854;4.354;2022-08-03T12:20:20;37.40;70.60
14411;DHT22;7290;50.854;4.354;2022-08-03T12:22:46;36.80;71.00
14411;DHT22;7290;50.854;4.354;2022-08-03T12:25:19;36.70;71.50
14411;DHT22;7290;50.854;4.354;2022-08-03T12:27:45;36.30;71.50
14411;DHT22;7290;50.854;4.354;2022-08-03T12:30:12;35.80;72.20
14411;DHT22;7290;50.854;4.354;2022-08-03T12:32:37;36.00;72.10
14411;DHT22;7290;50.854;4.354;2022-08-03T12:35:04;36.50;71.50
14411;DHT22;7290;50.854;4.354;2022-08-03T12:37:31;36.30;71.30
14411;DHT22;7290;50.854;4.354;2022-08-03T12:39:59;36.20;71.30
14411;DHT22;7290;50.854;4.354;2022-08-03T12:42:28;35.80;71.60
14411;DHT22;7290;50.854;4.354;2022-08-03T12:44:54;35.70;72.50
14411;DHT22;7290;50.854;4.354;2022-08-03T12:47:20;35.30;73.00
14411;DHT22;7290;50.854;4.354;2022-08-03T12:49:47;35.00;73.60
14411;DHT22;7290;50.854;4.354;2022-08-03T12:52:13;34.40;74.70
14411;DHT22;7290;50.854;4.354;2022-08-03T12:54:41;33.90;75.90
14411;DHT22;7290;50.854;4.354;2022-08-03T12:57:09;33.90;75.80
14411;DHT22;7290;50.854;4.354;2022-08-03T12:59:36;33.80;75.40
14411;DHT22;7290;50.854;4.354;2022-08-03T13:02:03;33.80;75.90
14411;DHT22;7290;50.854;4.354;2022-08-03T13:04:29;34.00;75.20
14411;DHT22;7290;50.854;4.354;2022-08-03T13:06:56;34.00;74.80
14411;DHT22;7290;50.854;4.354;2022-08-03T13:09:22;33.70;75.30
14411;DHT22;7290;50.854;4.354;2022-08-03T13:12:03;33.90;75.50
14411;DHT22;7290;50.854;4.354;2022-08-03T13:14:29;34.10;75.40
14411;DHT22;7290;50.854;4.354;2022-08-03T13:16:55;34.10;74.40
14411;DHT22;7290;50.854;4.354;2022-08-03T13:19:21;34.10;74.70
14411;DHT22;7290;50.854;4.354;2022-08-03T13:21:47;34.30;74.70
14411;DHT22;7290;50.854;4.354;2022-08-03T13:24:14;34.60;74.00
14411;DHT22;7290;50.854;4.354;2022-08-03T13:26:40;35.10;73.70
14411;DHT22;7290;50.854;4.354;2022-08-03T13:29:06;34.90;74.00
14411;DHT22;7290;50.854;4.354;2022-08-03T13:31:32;34.60;74.30
14411;DHT22;7290;50.854;4.354;2022-08-03T13:33:58;34.30;74.50
14411;DHT22;7290;50.854;4.354;2022-08-03T13:36:24;34.30;74.50
14411;DHT22;7290;50.854;4.354;2022-08-03T13:38:50;34.50;74.10
14411;DHT22;7290;50.854;4.354;2022-08-03T13:41:16;34.60;74.10
14411;DHT22;7290;50.854;4.354;2022-08-03T13:43:42;34.30;74.40
14411;DHT22;7290;50.854;4.354;2022-08-03T13:46:08;34.00;75.00
14411;DHT22;7290;50.854;4.354;2022-08-03T13:48:34;33.90;75.20
14411;DHT22;7290;50.854;4.354;2022-08-03T13:51:00;34.00;75.20
14411;DHT22;7290;50.854;4.354;2022-08-03T13:53:26;34.40;75.20
14411;DHT22;7290;50.854;4.354;2022-08-03T13:55:52;34.40;74.30
14411;DHT22;7290;50.854;4.354;2022-08-03T13:58:18;34.90;74.10
14411;DHT22;7290;50.854;4.354;2022-08-03T14:00:44;34.80;73.50
14411;DHT22;7290;50.854;4.354;2022-08-03T14:03:10;34.70;74.00
14411;DHT22;7290;50.854;4.354;2022-08-03T14:05:36;34.50;74.10
14411;DHT22;7290;50.854;4.354;2022-08-03T14:08:03;34.60;74.20
14411;DHT22;7290;50.854;4.354;2022-08-03T14:10:30;34.70;73.50
14411;DHT22;7290;50.854;4.354;2022-08-03T14:12:56;34.90;73.30
14411;DHT22;7290;50.854;4.354;2022-08-03T14:15:24;35.00;73.20
14411;DHT22;7290;50.854;4.354;2022-08-03T14:17:50;35.00;73.30
14411;DHT22;7290;50.854;4.354;2022-08-03T14:20:17;35.00;73.60
14411;DHT22;7290;50.854;4.354;2022-08-03T14:22:43;34.80;73.70
14411;DHT22;7290;50.854;4.354;2022-08-03T14:25:09;35.00;73.50
14411;DHT22;7290;50.854;4.354;2022-08-03T14:27:35;34.80;73.90
14411;DHT22;7290;50.854;4.354;2022-08-03T14:30:01;34.60;74.00
14411;DHT22;7290;50.854;4.354;2022-08-03T14:32:27;34.20;74.10
14411;DHT22;7290;50.854;4.354;2022-08-03T14:34:53;34.10;74.20
14411;DHT22;7290;50.854;4.354;2022-08-03T14:37:20;34.30;74.00
14411;DHT22;7290;50.854;4.354;2022-08-03T14:39:46;34.60;73.90
14411;DHT22;7290;50.854;4.354;2022-08-03T14:42:12;34.70;73.50
14411;DHT22;7290;50.854;4.354;2022-08-03T14:44:39;34.60;73.70
14411;DHT22;7290;50.854;4.354;2022-08-03T14:47:05;34.60;73.40
14411;DHT22;7290;50.854;4.354;2022-08-03T14:49:31;34.50;73.70
14411;DHT22;7290;50.854;4.354;2022-08-03T14:51:58;34.50;73.60
14411;DHT22;7290;50.854;4.354;2022-08-03T14:54:24;34.60;73.50
14411;DHT22;7290;50.854;4.354;2022-08-03T14:56:50;34.70;73.50
14411;DHT22;7290;50.854;4.354;2022-08-03T14:59:16;34.60;73.40
14411;DHT22;7290;50.854;4.354;2022-08-03T15:01:42;34.40;74.20
14411;DHT22;7290;50.854;4.354;2022-08-03T15:04:08;34.40;74.10
14411;DHT22;7290;50.854;4.354;2022-08-03T15:06:34;34.40;74.30
14411;DHT22;7290;50.854;4.354;2022-08-03T15:09:00;34.70;73.80
14411;DHT22;7290;50.854;4.354;2022-08-03T15:11:26;34.80;73.50
14411;DHT22;7290;50.854;4.354;2022-08-03T15:13:52;34.60;73.60
14411;DHT22;7290;50.854;4.354;2022-08-03T15:16:18;34.80;73.80
14411;DHT22;7290;50.854;4.354;2022-08-03T15:18:44;34.70;73.80
14411;DHT22;7290;50.854;4.354;2022-08-03T15:21:10;34.60;74.00
14411;DHT22;7290;50.854;4.354;2022-08-03T15:23:36;34.70;74.20
14411;DHT22;7290;50.854;4.354;2022-08-03T15:26:02;35.00;73.40
14411;DHT22;7290;50.854;4.354;2022-08-03T15:28:29;34.70;73.50
14411;DHT22;7290;50.854;4.354;2022-08-03T15:30:55;34.80;73.50
14411;DHT22;7290;50.854;4.354;2022-08-03T15:33:21;34.60;73.90
14411;DHT22;7290;50.854;4.354;2022-08-03T15:35:47;34.70;73.80
14411;DHT22;7290;50.854;4.354;2022-08-03T15:38:14;35.00;73.30
14411;DHT22;7290;50.854;4.354;2022-08-03T15:40:40;35.20;73.00
14411;DHT22;7290;50.854;4.354;2022-08-03T15:43:06;35.10;72.80
14411;DHT22;7290;50.854;4.354;2022-08-03T15:45:32;34.90;73.50
14411;DHT22;7290;50.854;4.354;2022-08-03T15:47:58;34.70;73.50
14411;DHT22;7290;50.854;4.354;2022-08-03T15:50:24;34.60;74.10
14411;DHT22;7290;50.854;4.354;2022-08-03T15:52:50;34.80;73.90
14411;DHT22;7290;50.854;4.354;2022-08-03T15:55:16;34.90;73.80
14411;DHT22;7290;50.854;4.354;2022-08-03T15:57:42;35.10;73.30
14411;DHT22;7290;50.854;4.354;2022-08-03T16:00:08;35.40;72.80